Ashland, Kansas
Current Conditions -  °F | °C
As of 4:52 PM on Wednesday 22 Oct 2014 (Local Time) from KDDC Reporting Station
Clear Clear  
Wind Chill: 65°   Ceiling: Unl
Heat Index: 65°   Visibility: 10mi
Dew Point: 55°   Wind: 17mph
Humidity: 70%   Direction: 180°S
Pressure: 30.02"   Gusts: NA
Location:  37.19°N, 99.77°W
Report Text: KDDC 222152Z AUTO 18015KT 10SM CLR 18/13 A3002 RMK AO2 SLP152 T01830128
Loading
Personal Weather Stations






























Interactive Weather Map
Tropical Storm Tracking
New forecast layout! Learn more

10-Day Weather Forecast

Advertisements
Track Severe Weather on mobile